Time;durP1;ratioP1;P1;durP2;ratioP2;P2;SDS_P1;SDS_P2;PMS_P1;PMS_P2;Temp;Humidity;BMP_temperature;BMP_pressure;BME280_temperature;BME280_humidity;BME280_pressure;Samples;Min_cycle;Max_cycle;Signal;HPM_P1;HPM_P2
2022/01/28 00:04:48;;;;;;;9.27;4.10;;;;;;;-5.17;58.22;98948.38;5090455;28;20028;-57
2022/01/28 00:07:14;;;;;;;7.50;4.05;;;;;;;-5.18;58.14;98951.88;5090665;28;20071;-59
2022/01/28 00:09:39;;;;;;;10.10;4.45;;;;;;;-5.14;58.12;98937.00;5090322;28;20463;-60
2022/01/28 00:12:07;;;;;;;6.47;3.40;;;;;;;-5.17;58.11;98942.31;5090107;28;20020;-59
2022/01/28 00:14:43;;;;;;;10.10;4.65;;;;;;;-5.25;58.70;98937.31;5089925;28;20060;-60
2022/01/28 00:38:55;;;;;;;7.00;3.53;;;;;;;-5.34;59.69;98904.53;5074606;28;20082;-58
2022/01/28 00:41:21;;;;;;;8.10;4.45;;;;;;;-5.28;58.77;98900.88;5073775;28;20063;-57
2022/01/28 00:43:47;;;;;;;11.15;4.50;;;;;;;-5.29;59.30;98907.00;5073763;28;20431;-58
2022/01/28 00:46:13;;;;;;;12.00;4.70;;;;;;;-5.31;59.37;98904.44;5073936;28;20045;-60
2022/01/28 00:48:38;;;;;;;9.90;4.45;;;;;;;-5.31;59.09;98903.56;5090129;28;20028;-59
2022/01/28 00:51:05;;;;;;;8.00;4.15;;;;;;;-5.36;60.08;98890.69;5093663;28;20491;-56
2022/01/28 00:53:30;;;;;;;7.60;4.10;;;;;;;-5.37;59.83;98884.59;5093909;28;20040;-60
2022/01/28 00:55:57;;;;;;;7.78;4.10;;;;;;;-5.35;59.72;98882.78;5094828;28;20379;-59
2022/01/28 00:58:24;;;;;;;9.18;4.80;;;;;;;-5.26;59.50;98879.03;5094317;28;20422;-59
2022/01/28 01:00:50;;;;;;;11.60;4.75;;;;;;;-5.22;59.49;98887.66;5093915;28;20376;-59
2022/01/28 01:03:15;;;;;;;11.18;4.35;;;;;;;-5.25;60.01;98882.53;5092383;28;20020;-58
2022/01/28 01:05:41;;;;;;;8.60;4.00;;;;;;;-5.23;59.22;98892.00;5094048;28;20036;-59
2022/01/28 01:08:07;;;;;;;8.70;4.15;;;;;;;-5.21;59.01;98879.75;5093362;28;20024;-58
2022/01/28 01:10:33;;;;;;;9.02;4.43;;;;;;;-5.28;59.50;98877.41;5093782;28;20108;-58
2022/01/28 01:12:59;;;;;;;10.25;5.20;;;;;;;-5.35;59.93;98872.34;5091913;28;20081;-60
2022/01/28 01:15:30;;;;;;;7.07;3.97;;;;;;;-5.34;59.07;98865.41;5076467;28;20033;-57
2022/01/28 01:18:06;;;;;;;8.95;4.53;;;;;;;-5.37;59.59;98871.56;5072965;28;20488;-57
2022/01/28 01:23:28;;;;;;;10.27;4.45;;;;;;;-5.33;59.19;98854.06;5061764;28;20040;-61
2022/01/28 01:28:28;;;;;;;10.68;4.45;;;;;;;-5.43;59.81;98850.88;5073093;28;20472;-57
2022/01/28 01:30:56;;;;;;;9.82;4.63;;;;;;;-5.38;59.67;98851.59;5073233;28;20470;-58
2022/01/28 01:33:22;;;;;;;10.25;4.55;;;;;;;-5.42;59.64;98843.91;5087032;28;20097;-57
2022/01/28 01:35:47;;;;;;;8.95;4.43;;;;;;;-5.35;59.62;98838.44;5079854;28;20423;-60
2022/01/28 01:38:13;;;;;;;10.63;4.68;;;;;;;-5.31;59.49;98843.56;5072490;28;20033;-56
2022/01/28 01:40:52;;;;;;;8.02;4.78;;;;;;;-5.35;59.81;98835.81;5071932;28;20067;-57
2022/01/28 01:43:32;;;;;;;10.95;4.38;;;;;;;-5.33;60.00;98841.00;5073333;28;20047;-61
2022/01/28 01:46:10;;;;;;;12.88;4.80;;;;;;;-5.32;59.75;98832.28;5073183;28;20128;-57
2022/01/28 01:54:05;;;;;;;8.35;4.60;;;;;;;-5.49;60.12;98809.34;5072808;28;20067;-56
2022/01/28 01:56:33;;;;;;;10.70;4.65;;;;;;;-5.33;59.77;98825.34;5080196;28;20133;-60
2022/01/28 01:58:59;;;;;;;7.68;4.28;;;;;;;-5.29;60.06;98824.34;5092578;28;20038;-59
2022/01/28 02:01:25;;;;;;;9.75;4.60;;;;;;;-5.26;60.06;98832.06;5091898;28;20024;-58
2022/01/28 02:03:51;;;;;;;9.40;4.88;;;;;;;-5.26;60.01;98818.19;5092544;28;20028;-58
2022/01/28 02:06:21;;;;;;;10.48;4.80;;;;;;;-5.24;59.76;98821.59;5090516;28;20856;-58
2022/01/28 02:08:48;;;;;;;8.27;4.65;;;;;;;-5.24;59.96;98821.59;5092596;28;20163;-55
2022/01/28 02:11:13;;;;;;;9.32;4.70;;;;;;;-5.21;59.48;98831.94;5092164;28;20028;-57
2022/01/28 02:13:40;;;;;;;9.73;4.43;;;;;;;-5.20;59.46;98837.09;5090846;28;20036;-56
2022/01/28 02:16:07;;;;;;;10.90;5.18;;;;;;;-5.28;59.87;98826.06;5092077;28;20082;-58
2022/01/28 02:18:33;;;;;;;9.80;4.97;;;;;;;-5.27;59.86;98825.16;5090406;28;20028;-55
2022/01/28 02:21:07;;;;;;;9.25;4.90;;;;;;;-5.41;59.77;98815.16;5092186;28;20034;-58
2022/01/28 02:23:32;;;;;;;11.80;4.90;;;;;;;-5.30;59.64;98811.38;5092326;28;20024;-59
2022/01/28 02:25:59;;;;;;;11.02;4.72;;;;;;;-5.47;59.89;98813.59;5092194;28;20074;-54
2022/01/28 02:28:27;;;;;;;9.15;4.78;;;;;;;-5.43;60.57;98827.41;5081890;28;20021;-57
2022/01/28 02:30:53;;;;;;;8.25;4.82;;;;;;;-5.52;60.26;98801.63;5071905;28;20067;-59
2022/01/28 02:33:21;;;;;;;8.98;4.50;;;;;;;-5.60;60.41;98793.16;5071780;28;20476;-59
2022/01/28 02:35:48;;;;;;;8.48;4.30;;;;;;;-5.45;60.43;98797.91;5072325;28;20029;-61
2022/01/28 02:38:16;;;;;;;11.63;4.65;;;;;;;-5.67;60.29;98769.88;5072560;28;20028;-59
2022/01/28 02:40:48;;;;;;;12.60;4.32;;;;;;;-5.48;60.64;98798.84;5071927;28;20448;-58
2022/01/28 02:43:39;;;;;;;13.50;5.22;;;;;;;-5.59;60.79;98787.03;5072040;28;20121;-60
2022/01/28 02:46:12;;;;;;;8.73;4.78;;;;;;;-5.49;60.21;98791.91;5071113;28;20139;-58
2022/01/28 02:48:42;;;;;;;9.18;4.60;;;;;;;-5.51;60.04;98785.91;5072713;28;20039;-60
2022/01/28 02:51:17;;;;;;;10.32;4.65;;;;;;;-5.53;60.31;98784.25;5071635;28;20472;-59
2022/01/28 02:53:49;;;;;;;9.20;5.10;;;;;;;-5.42;59.61;98789.97;5070990;28;20048;-59
2022/01/28 02:56:18;;;;;;;9.52;4.25;;;;;;;-5.67;60.15;98775.09;5071249;28;20025;-60
2022/01/28 02:58:45;;;;;;;9.90;4.45;;;;;;;-5.66;60.30;98783.78;5072294;28;20871;-56
2022/01/28 03:01:13;;;;;;;9.40;4.72;;;;;;;-5.77;60.83;98776.31;5071651;28;20488;-57
2022/01/28 03:03:43;;;;;;;8.35;4.90;;;;;;;-5.83;60.99;98750.41;5070965;28;20101;-60
2022/01/28 03:06:09;;;;;;;8.82;4.30;;;;;;;-5.63;60.15;98774.09;5071464;28;20063;-60
2022/01/28 03:08:34;;;;;;;10.48;5.25;;;;;;;-5.67;60.15;98774.22;5071814;28;20036;-59
2022/01/28 03:16:15;;;;;;;10.70;4.90;;;;;;;-5.83;61.40;98773.84;5091401;28;20032;-61
2022/01/28 03:23:45;;;;;;;10.23;5.20;;;;;;;-5.70;60.95;98767.38;5091106;28;20028;-61
2022/01/28 03:26:11;;;;;;;11.50;5.53;;;;;;;-5.69;60.57;98756.03;5089484;28;20031;-59
2022/01/28 03:28:36;;;;;;;9.07;4.88;;;;;;;-5.64;60.29;98771.56;5074209;28;20059;-62
2022/01/28 03:31:02;;;;;;;10.95;5.25;;;;;;;-5.70;60.64;98772.59;5070454;28;20140;-58
2022/01/28 03:33:27;;;;;;;10.25;5.38;;;;;;;-5.73;60.81;98767.47;5070079;28;20032;-62
2022/01/28 03:35:53;;;;;;;12.02;5.82;;;;;;;-5.72;60.78;98771.78;5071173;28;20086;-59
2022/01/28 03:38:18;;;;;;;11.00;5.28;;;;;;;-5.75;61.15;98769.28;5077080;28;20459;-57
2022/01/28 03:40:45;;;;;;;15.40;6.18;;;;;;;-5.68;61.23;98775.13;5090887;28;20035;-56
2022/01/28 03:43:10;;;;;;;14.05;5.95;;;;;;;-5.68;61.31;98772.53;5090222;28;20028;-60
2022/01/28 03:45:36;;;;;;;13.27;6.40;;;;;;;-5.68;60.83;98749.94;5090815;28;20054;-59
2022/01/28 03:48:02;;;;;;;10.90;5.38;;;;;;;-5.67;61.24;98751.63;5091450;28;20036;-61
2022/01/28 03:50:32;;;;;;;8.30;3.78;;;;;;;-5.50;60.32;98742.41;5090810;28;20032;-59
2022/01/28 03:52:59;;;;;;;13.63;5.72;;;;;;;-5.57;60.68;98746.13;5088424;28;20444;-60
2022/01/28 03:55:24;;;;;;;17.33;6.32;;;;;;;-5.64;60.51;98728.06;5090997;28;20093;-60
2022/01/28 03:57:49;;;;;;;12.45;4.47;;;;;;;-5.56;61.00;98738.25;5090873;28;20405;-58
2022/01/28 04:00:16;;;;;;;13.75;6.55;;;;;;;-5.69;61.01;98721.28;5090222;28;20106;-53
2022/01/28 04:02:44;;;;;;;11.93;5.95;;;;;;;-5.67;61.32;98722.94;5089925;28;20043;-60
2022/01/28 04:13:25;;;;;;;14.77;6.88;;;;;;;-5.60;61.07;98747.09;5071769;28;20044;-59
2022/01/28 04:16:15;;;;;;;12.15;6.90;;;;;;;-5.59;61.62;98747.91;5072638;28;20446;-56
2022/01/28 04:18:36;;;;;;;13.85;6.47;;;;;;;-5.54;61.05;98757.31;5069645;28;20029;-59
2022/01/28 04:21:02;;;;;;;12.70;6.85;;;;;;;-5.50;61.35;98747.63;5069872;28;20069;-54
2022/01/28 04:23:28;;;;;;;18.90;7.47;;;;;;;-5.45;61.55;98744.88;5069812;28;20042;-61
2022/01/28 04:25:53;;;;;;;14.27;6.80;;;;;;;-5.46;61.59;98744.03;5068662;28;20121;-57
2022/01/28 04:28:18;;;;;;;13.32;7.30;;;;;;;-5.46;61.79;98744.03;5069251;28;20039;-57
2022/01/28 04:30:44;;;;;;;15.90;7.68;;;;;;;-5.40;60.97;98737.75;5081384;28;20024;-58
2022/01/28 04:33:10;;;;;;;14.25;7.03;;;;;;;-5.42;61.10;98740.41;5077673;28;20033;-59
2022/01/28 04:35:36;;;;;;;16.05;7.45;;;;;;;-5.42;61.16;98745.63;5068379;28;20086;-57
2022/01/28 04:38:17;;;;;;;16.75;7.00;;;;;;;-5.43;61.49;98743.91;5069020;28;20040;-55
2022/01/28 04:43:44;;;;;;;15.93;8.02;;;;;;;-5.39;61.04;98744.69;5064144;28;20178;-57
2022/01/28 04:52:35;;;;;;;15.20;6.53;;;;;;;-5.38;61.45;98749.84;5068217;28;20086;-58
2022/01/28 05:07:46;;;;;;;20.27;8.30;;;;;;;-5.44;61.77;98726.56;5069027;28;20025;-61
2022/01/28 05:28:23;;;;;;;18.67;7.97;;;;;;;-5.30;61.69;98746.13;5093154;28;20056;-60
2022/01/28 05:30:49;;;;;;;11.68;5.38;;;;;;;-5.32;61.23;98694.00;5093628;28;20107;-59
2022/01/28 05:33:15;;;;;;;16.52;8.07;;;;;;;-5.28;61.10;98715.63;5081631;28;20115;-59
2022/01/28 05:35:40;;;;;;;13.02;6.47;;;;;;;-5.24;61.60;98715.44;5073053;28;20040;-59
2022/01/28 05:38:06;;;;;;;16.77;6.38;;;;;;;-5.21;61.60;98704.06;5072188;28;20040;-57
2022/01/28 05:40:31;;;;;;;16.52;7.72;;;;;;;-5.22;61.38;98700.59;5071403;28;20033;-54
2022/01/28 05:42:57;;;;;;;15.82;7.82;;;;;;;-5.11;61.33;98713.28;5073377;28;20032;-63
2022/01/28 05:45:22;;;;;;;15.95;8.05;;;;;;;-5.17;61.34;98682.19;5072768;28;20063;-59
2022/01/28 05:47:48;;;;;;;14.18;7.50;;;;;;;-5.19;61.44;98684.81;5072770;28;20039;-57
2022/01/28 05:50:13;;;;;;;13.20;7.10;;;;;;;-5.07;61.40;98729.69;5072972;28;20036;-58
2022/01/28 05:52:39;;;;;;;13.82;6.90;;;;;;;-5.18;61.16;98685.69;5072848;28;20060;-61
2022/01/28 05:55:05;;;;;;;15.18;7.45;;;;;;;-4.96;60.47;98705.81;5072091;28;20031;-60
2022/01/28 05:57:31;;;;;;;19.50;7.50;;;;;;;-5.08;61.52;98713.16;5072056;28;20449;-57
2022/01/28 05:59:56;;;;;;;15.23;7.43;;;;;;;-5.11;61.28;98708.06;5072462;28;20063;-56
2022/01/28 06:02:22;;;;;;;16.52;7.10;;;;;;;-5.01;61.22;98694.69;5072412;28;20361;-59
2022/01/28 06:04:47;;;;;;;16.70;7.75;;;;;;;-5.03;61.83;98688.69;5081339;28;20036;-63
2022/01/28 06:07:13;;;;;;;15.05;6.30;;;;;;;-4.98;61.41;98694.59;5090700;28;20031;-57
2022/01/28 06:09:39;;;;;;;15.65;7.53;;;;;;;-4.83;61.31;98680.97;5091804;28;20020;-61
2022/01/28 06:12:05;;;;;;;12.82;6.95;;;;;;;-4.80;60.95;98686.09;5092181;28;20020;-61
2022/01/28 06:14:30;;;;;;;14.65;6.95;;;;;;;-4.92;62.14;98679.56;5090328;28;20036;-60
2022/01/28 06:16:56;;;;;;;14.18;6.78;;;;;;;-4.88;61.74;98676.84;5091795;28;20585;-62
2022/01/28 06:19:21;;;;;;;12.05;6.40;;;;;;;-4.82;62.03;98679.22;5090285;28;20028;-62
2022/01/28 06:21:47;;;;;;;14.60;7.18;;;;;;;-4.73;61.71;98680.66;5091484;28;20507;-62
2022/01/28 06:24:12;;;;;;;12.98;6.68;;;;;;;-4.73;61.66;98673.66;5090667;28;20020;-61
2022/01/28 06:26:38;;;;;;;12.57;6.78;;;;;;;-4.77;61.65;98664.22;5091817;28;20421;-58
2022/01/28 06:29:03;;;;;;;14.40;7.03;;;;;;;-4.70;61.58;98677.94;5091664;28;20032;-58
2022/01/28 06:31:29;;;;;;;15.85;7.15;;;;;;;-4.73;61.43;98670.22;5091804;28;20475;-56
2022/01/28 06:33:55;;;;;;;14.55;7.07;;;;;;;-4.69;61.49;98663.97;5073566;28;20081;-61
2022/01/28 06:36:21;;;;;;;15.43;7.80;;;;;;;-4.72;61.86;98651.03;5075700;28;20032;-60
2022/01/28 06:38:48;;;;;;;15.43;6.57;;;;;;;-4.70;61.71;98662.25;5071628;28;20047;-57
2022/01/28 06:41:13;;;;;;;16.95;6.68;;;;;;;-4.59;61.54;98669.69;5071929;28;20131;-61
2022/01/28 06:43:39;;;;;;;12.32;6.43;;;;;;;-4.56;61.33;98667.84;5071457;28;20493;-59
2022/01/28 06:46:05;;;;;;;13.00;7.15;;;;;;;-4.48;60.98;98676.22;5071126;28;20119;-62
2022/01/28 06:48:30;;;;;;;12.70;7.32;;;;;;;-4.53;61.84;98665.09;5071909;28;20175;-64
2022/01/28 06:50:56;;;;;;;15.43;7.32;;;;;;;-4.45;61.90;98663.94;5085669;28;20067;-64
2022/01/28 06:53:21;;;;;;;13.73;7.38;;;;;;;-4.40;62.15;98662.88;5089912;28;20028;-63
2022/01/28 06:55:47;;;;;;;19.30;7.40;;;;;;;-4.25;61.51;98666.66;5090963;28;20040;-64
2022/01/28 06:58:14;;;;;;;14.82;7.50;;;;;;;-4.14;61.59;98668.00;5090981;28;20044;-62
2022/01/28 07:00:40;;;;;;;15.88;6.43;;;;;;;-4.06;61.38;98660.72;5089319;28;20518;-63
2022/01/28 07:03:07;;;;;;;15.85;6.07;;;;;;;-4.18;61.27;98617.63;5090026;28;20119;-64
2022/01/28 07:05:33;;;;;;;19.73;7.65;;;;;;;-3.90;60.89;98663.56;5087504;28;20028;-64
2022/01/28 07:07:58;;;;;;;13.95;7.07;;;;;;;-3.84;60.93;98659.84;5089539;28;20475;-62
2022/01/28 07:10:24;;;;;;;16.08;7.18;;;;;;;-3.89;60.49;98663.47;5090956;28;20803;-64
2022/01/28 07:12:50;;;;;;;15.45;6.93;;;;;;;-3.90;61.12;98680.09;5090549;28;20024;-64
2022/01/28 07:15:16;;;;;;;17.58;7.20;;;;;;;-4.11;60.98;98632.13;5090926;28;20035;-63
2022/01/28 07:17:41;;;;;;;12.23;6.82;;;;;;;-3.86;60.56;98661.66;5091785;28;20034;-64
2022/01/28 07:20:08;;;;;;;15.95;7.43;;;;;;;-4.05;60.54;98636.28;5091645;28;20024;-64
2022/01/28 07:22:34;;;;;;;14.98;7.10;;;;;;;-3.77;60.33;98664.75;5086341;28;20021;-64
2022/01/28 07:24:59;;;;;;;16.15;7.55;;;;;;;-3.69;60.33;98682.75;5090950;28;20104;-65
2022/01/28 07:27:25;;;;;;;14.25;7.60;;;;;;;-3.73;60.19;98669.88;5090250;28;20380;-64
2022/01/28 07:29:51;;;;;;;19.27;8.60;;;;;;;-3.75;60.86;98672.56;5070279;28;20064;-62
2022/01/28 07:32:17;;;;;;;13.95;6.82;;;;;;;-3.67;60.50;98685.31;5070323;28;20098;-62
2022/01/28 07:34:43;;;;;;;16.08;8.18;;;;;;;-3.68;60.72;98671.38;5070386;28;20447;-64
2022/01/28 07:37:08;;;;;;;14.35;7.93;;;;;;;-3.67;60.76;98682.72;5069640;28;20033;-64
2022/01/28 07:39:34;;;;;;;15.75;7.22;;;;;;;-3.67;60.43;98673.06;5085624;28;20028;-64
2022/01/28 07:42:00;;;;;;;15.05;8.20;;;;;;;-3.64;60.20;98667.72;5090564;28;20119;-63
2022/01/28 07:44:25;;;;;;;15.52;8.00;;;;;;;-3.65;60.11;98660.78;5090142;28;20036;-61
2022/01/28 07:46:51;;;;;;;15.02;7.65;;;;;;;-3.67;59.28;98636.47;5090547;28;20044;-61
2022/01/28 07:49:17;;;;;;;15.77;8.02;;;;;;;-3.50;60.03;98690.69;5089553;28;20592;-60
2022/01/28 07:51:42;;;;;;;14.18;7.03;;;;;;;-3.90;59.46;98619.09;5090589;28;20545;-58
2022/01/28 07:54:08;;;;;;;15.50;8.18;;;;;;;-3.68;59.15;98644.38;5083924;28;20039;-60
2022/01/28 07:56:35;;;;;;;14.45;7.35;;;;;;;-3.47;59.83;98674.91;5097633;28;20032;-62
2022/01/28 07:59:00;;;;;;;18.25;8.65;;;;;;;-3.44;59.83;98668.66;5110760;28;20027;-59
2022/01/28 08:01:26;;;;;;;16.10;8.85;;;;;;;-3.29;59.72;98674.19;5097400;28;20135;-62
2022/01/28 08:03:52;;;;;;;16.95;8.73;;;;;;;-3.21;59.16;98654.63;5075513;28;20468;-61
2022/01/28 08:06:17;;;;;;;20.52;9.52;;;;;;;-3.26;59.61;98669.66;5083578;28;20024;-61
2022/01/28 08:08:43;;;;;;;17.90;8.27;;;;;;;-3.27;59.04;98635.69;5080171;28;20028;-61
2022/01/28 08:11:08;;;;;;;15.93;8.60;;;;;;;-3.00;59.08;98683.41;5072497;28;20028;-64
2022/01/28 08:13:34;;;;;;;15.68;8.32;;;;;;;-3.05;59.43;98669.63;5087115;28;20036;-64
2022/01/28 08:15:59;;;;;;;19.55;8.93;;;;;;;-3.06;59.16;98658.34;5110219;28;20034;-62
2022/01/28 08:18:25;;;;;;;17.88;9.05;;;;;;;-2.98;59.04;98670.22;5110156;28;20120;-58
2022/01/28 08:20:52;;;;;;;18.15;8.98;;;;;;;-2.91;58.67;98666.41;5110749;28;20020;-65
2022/01/28 08:23:18;;;;;;;17.35;9.40;;;;;;;-2.89;58.59;98664.59;5109944;28;20058;-65
2022/01/28 08:25:45;;;;;;;17.50;8.98;;;;;;;-2.97;59.03;98653.59;5075933;28;20029;-64
2022/01/28 08:28:10;;;;;;;18.60;9.38;;;;;;;-2.98;59.31;98654.53;5070160;28;20487;-65
2022/01/28 08:30:39;;;;;;;17.48;9.32;;;;;;;-3.03;58.67;98663.44;5069704;28;20032;-68
2022/01/28 08:33:06;;;;;;;18.50;9.15;;;;;;;-3.20;58.34;98638.00;5069431;28;20457;-67
2022/01/28 08:35:37;;;;;;;12.75;6.28;;;;;;;-2.93;58.96;98663.88;5068194;28;20036;-65
2022/01/28 08:38:08;;;;;;;22.65;10.10;;;;;;;-3.03;59.47;98679.16;5068732;28;20084;-64
2022/01/28 08:40:34;;;;;;;19.05;9.00;;;;;;;-2.91;58.49;98648.09;5074023;28;20416;-71
2022/01/28 08:42:59;;;;;;;20.38;8.73;;;;;;;-3.03;57.83;98621.53;5086062;28;20049;-68
2022/01/28 08:45:25;;;;;;;19.25;9.65;;;;;;;-2.90;58.47;98636.69;5069584;28;20054;-66
2022/01/28 08:47:50;;;;;;;17.08;9.20;;;;;;;-2.75;57.99;98640.41;5068217;28;20052;-64
2022/01/28 08:50:16;;;;;;;21.77;9.73;;;;;;;-2.67;57.46;98642.66;5089247;28;20043;-63
2022/01/28 08:52:46;;;;;;;18.95;9.57;;;;;;;-2.69;58.06;98636.63;5100380;28;20032;-58
2022/01/28 08:55:13;;;;;;;17.35;9.40;;;;;;;-2.72;58.01;98635.03;5086057;28;20035;-64
2022/01/28 08:57:43;;;;;;;19.90;10.25;;;;;;;-2.70;57.75;98642.81;5090998;28;20036;-59
2022/01/28 09:00:13;;;;;;;20.20;10.27;;;;;;;-3.04;58.54;98593.66;5090719;28;20082;-64
2022/01/28 09:02:42;;;;;;;22.15;10.45;;;;;;;-2.74;57.72;98636.88;5093543;28;20085;-66
2022/01/28 09:05:08;;;;;;;20.50;10.00;;;;;;;-2.87;58.62;98636.56;5094344;28;20383;-68
2022/01/28 09:07:34;;;;;;;21.75;10.50;;;;;;;-2.80;57.83;98635.38;5074297;28;20112;-65
2022/01/28 09:10:04;;;;;;;24.30;10.27;;;;;;;-2.79;58.31;98629.22;5073373;28;20458;-66
2022/01/28 09:14:58;;;;;;;23.70;11.20;;;;;;;-2.72;58.44;98619.31;5074265;28;20115;-67
2022/01/28 09:17:25;;;;;;;20.80;10.40;;;;;;;-2.57;58.26;98623.00;5082259;28;20708;-68
2022/01/28 09:19:51;;;;;;;18.52;8.85;;;;;;;-2.42;57.99;98642.41;5091549;28;20039;-66
2022/01/28 09:22:16;;;;;;;23.20;11.13;;;;;;;-2.63;57.66;98624.13;5093670;28;20032;-62
2022/01/28 09:24:42;;;;;;;23.40;10.77;;;;;;;-2.65;58.39;98643.47;5093630;28;20089;-65
2022/01/28 09:27:08;;;;;;;21.80;8.82;;;;;;;-2.65;57.73;98625.97;5091504;28;20136;-64
2022/01/28 09:29:33;;;;;;;19.88;8.90;;;;;;;-2.72;57.83;98608.84;5092415;28;20028;-64
2022/01/28 09:32:00;;;;;;;25.70;11.15;;;;;;;-2.88;57.97;98596.41;5091832;28;20028;-67
2022/01/28 09:34:27;;;;;;;20.25;9.73;;;;;;;-2.82;58.43;98629.34;5093883;28;20062;-67
2022/01/28 09:36:53;;;;;;;22.17;10.90;;;;;;;-2.98;58.89;98620.47;5092905;28;20464;-65
2022/01/28 09:39:20;;;;;;;22.00;10.75;;;;;;;-2.92;58.30;98615.81;5092598;28;20050;-66
2022/01/28 09:41:47;;;;;;;22.50;10.18;;;;;;;-3.00;59.19;98632.78;5092889;28;20036;-66
2022/01/28 09:44:17;;;;;;;24.17;10.48;;;;;;;-2.93;59.26;98623.72;5091646;28;20028;-67
2022/01/28 09:46:43;;;;;;;27.00;11.70;;;;;;;-3.44;58.23;98532.59;5090063;28;20048;-68
2022/01/28 09:49:10;;;;;;;24.80;9.60;;;;;;;-2.97;59.25;98624.78;5092475;28;20540;-67
2022/01/28 09:51:36;;;;;;;26.20;11.10;;;;;;;-3.23;58.93;98590.13;5092218;28;20085;-68
2022/01/28 09:54:02;;;;;;;26.85;12.63;;;;;;;-2.95;58.95;98620.34;5092488;28;20040;-65
2022/01/28 09:56:29;;;;;;;25.92;11.82;;;;;;;-2.87;59.33;98620.88;5093029;28;20422;-65
2022/01/28 09:58:55;;;;;;;30.30;13.35;;;;;;;-2.96;58.29;98587.22;5090988;28;20020;-65
2022/01/28 10:01:20;;;;;;;27.13;11.35;;;;;;;-2.71;58.58;98617.53;5091435;28;20039;-67
2022/01/28 10:03:59;;;;;;;27.58;11.65;;;;;;;-2.55;57.94;98602.81;5092178;28;20024;-69
2022/01/28 10:06:34;;;;;;;27.40;12.10;;;;;;;-2.59;57.35;98588.16;5092211;28;20486;-69
2022/01/28 10:09:07;;;;;;;29.08;12.40;;;;;;;-2.48;58.11;98596.34;5088128;28;20055;-67
2022/01/28 10:11:32;;;;;;;29.27;12.38;;;;;;;-2.41;57.72;98606.53;5092169;28;20114;-66
2022/01/28 10:14:08;;;;;;;30.38;12.73;;;;;;;-2.35;57.67;98603.66;5092323;28;20054;-66
2022/01/28 10:16:34;;;;;;;25.38;12.73;;;;;;;-2.36;57.50;98601.94;5092546;28;20024;-64
2022/01/28 10:19:11;;;;;;;25.95;12.73;;;;;;;-2.48;58.12;98577.16;5090230;28;20375;-68
2022/01/28 10:21:43;;;;;;;29.27;13.00;;;;;;;-2.57;58.12;98564.47;5091899;28;20123;-66
2022/01/28 10:24:17;;;;;;;31.77;13.75;;;;;;;-2.49;58.37;98589.41;5092414;28;20024;-66
2022/01/28 10:26:56;;;;;;;25.25;12.07;;;;;;;-2.48;58.02;98592.91;5091988;28;20153;-66
2022/01/28 10:29:27;;;;;;;30.45;12.95;;;;;;;-2.56;58.88;98588.00;5078303;28;20067;-64
2022/01/28 10:32:06;;;;;;;31.48;14.25;;;;;;;-2.63;58.14;98591.84;5092434;28;20043;-66
2022/01/28 10:34:37;;;;;;;27.75;13.57;;;;;;;-2.77;59.02;98597.72;5089959;28;20032;-64
2022/01/28 10:37:21;;;;;;;30.02;13.02;;;;;;;-2.74;59.71;98594.97;5091635;28;20020;-65
2022/01/28 10:39:55;;;;;;;29.95;13.20;;;;;;;-2.80;59.10;98582.13;5090255;28;20433;-63
2022/01/28 10:42:39;;;;;;;28.83;13.77;;;;;;;-2.76;59.46;98586.31;5091769;28;20040;-64
2022/01/28 10:45:17;;;;;;;34.38;14.05;;;;;;;-2.73;59.05;98596.66;5091142;28;20036;-62
2022/01/28 10:47:44;;;;;;;30.98;13.73;;;;;;;-2.79;58.97;98586.44;5090274;28;20055;-64
2022/01/28 10:50:18;;;;;;;32.20;13.93;;;;;;;-2.72;59.54;98581.78;5088945;28;20028;-64
2022/01/28 10:52:43;;;;;;;31.23;15.07;;;;;;;-2.90;58.53;98547.63;5091493;28;20031;-64
2022/01/28 10:55:16;;;;;;;32.45;14.13;;;;;;;-2.72;58.98;98585.25;5091273;28;20032;-65
2022/01/28 10:57:55;;;;;;;28.45;13.00;;;;;;;-2.71;59.21;98573.84;5090576;28;20035;-64
2022/01/28 11:00:21;;;;;;;31.52;13.93;;;;;;;-2.79;59.04;98573.34;5088306;28;20032;-66
2022/01/28 11:02:46;;;;;;;30.77;14.40;;;;;;;-2.87;59.51;98578.94;5070864;28;20039;-66
2022/01/28 11:05:12;;;;;;;31.42;13.77;;;;;;;-2.97;59.41;98565.41;5070729;28;20082;-64
2022/01/28 11:07:38;;;;;;;35.03;14.35;;;;;;;-2.93;59.86;98558.25;5071198;28;20032;-65
2022/01/28 11:10:03;;;;;;;35.47;14.88;;;;;;;-3.07;59.88;98553.66;5070507;28;20028;-66
2022/01/28 11:12:29;;;;;;;35.40;14.65;;;;;;;-2.85;59.41;98577.09;5057177;28;20063;-67
2022/01/28 11:14:55;;;;;;;30.73;14.25;;;;;;;-2.93;59.34;98563.50;5070796;28;20039;-64
2022/01/28 11:17:20;;;;;;;36.22;15.48;;;;;;;-3.00;60.24;98562.94;5076288;28;20043;-65
2022/01/28 11:19:48;;;;;;;37.33;15.00;;;;;;;-2.91;60.17;98561.66;5090994;28;20028;-66
2022/01/28 11:22:28;;;;;;;34.42;15.55;;;;;;;-2.84;60.85;98560.47;5085273;28;20036;-63
2022/01/28 11:25:25;;;;;;;35.00;16.20;;;;;;;-2.70;59.85;98565.06;5090767;28;20052;-65
2022/01/28 11:27:50;;;;;;;36.40;15.68;;;;;;;-2.56;59.56;98561.81;5059091;28;20044;-64
2022/01/28 11:30:25;;;;;;;22.58;7.75;;;;;;;-2.39;59.38;98568.03;5090530;28;20228;-63
2022/01/28 11:33:00;;;;;;;37.67;16.23;;;;;;;-2.57;58.82;98560.09;5086379;28;20044;-64
2022/01/28 11:35:27;;;;;;;;;;;;;;;-2.40;59.24;98567.16;5088276;28;20038;-65
2022/01/28 11:37:55;;;;;;;39.05;15.52;;;;;;;-2.49;58.81;98552.72;5089758;28;19923;-65
2022/01/28 11:40:23;;;;;;;41.90;16.65;;;;;;;-2.64;59.31;98559.53;5086717;28;20112;-64
2022/01/28 11:42:48;;;;;;;37.88;16.00;;;;;;;-2.66;59.29;98550.91;5089195;28;20974;-63
2022/01/28 11:45:14;;;;;;;40.75;16.58;;;;;;;-2.74;59.53;98555.66;5089790;28;20065;-65
2022/01/28 11:47:59;;;;;;;40.70;17.77;;;;;;;-2.71;59.57;98557.25;5087683;28;20039;-64
2022/01/28 11:50:25;;;;;;;;;;;;;;;-2.53;59.07;98553.78;5090198;28;20376;-64
2022/01/28 11:52:53;;;;;;;38.90;16.70;;;;;;;-2.68;59.44;98571.09;5088341;28;20018;-65
2022/01/28 11:55:20;;;;;;;46.17;17.88;;;;;;;-2.82;59.56;98558.63;5089490;28;20062;-66
2022/01/28 11:58:08;;;;;;;46.00;19.23;;;;;;;-3.05;60.97;98565.75;5088454;28;20035;-65
2022/01/28 12:00:37;;;;;;;39.47;16.60;;;;;;;-3.17;60.58;98574.16;5089066;28;20046;-65
2022/01/28 12:03:24;;;;;;;41.33;17.08;;;;;;;-3.25;60.58;98556.19;5070996;28;20052;-65
2022/01/28 12:05:56;;;;;;;41.75;15.00;;;;;;;-3.25;61.03;98558.81;5088605;28;20031;-64
2022/01/28 12:08:25;;;;;;;40.75;16.02;;;;;;;-3.27;60.77;98559.78;5087378;28;20060;-64
2022/01/28 12:10:52;;;;;;;46.25;18.50;;;;;;;-3.41;61.55;98557.78;5089021;28;20439;-62
2022/01/28 12:13:31;;;;;;;42.90;18.23;;;;;;;-3.35;61.56;98568.84;5088473;28;20131;-67
2022/01/28 12:16:02;;;;;;;42.75;17.55;;;;;;;-3.17;61.22;98571.53;5088280;28;20024;-63
2022/01/28 12:18:45;;;;;;;43.78;18.58;;;;;;;-3.09;61.02;98566.81;5090296;28;20028;-64
2022/01/28 12:21:23;;;;;;;51.95;18.92;;;;;;;-3.27;61.59;98562.41;5088494;28;20518;-64
2022/01/28 12:23:51;;;;;;;44.97;18.67;;;;;;;-3.42;61.69;98545.63;5086088;28;21038;-63
2022/01/28 12:26:19;;;;;;;44.03;19.42;;;;;;;-3.30;61.42;98550.28;5088744;28;20024;-64
2022/01/28 12:28:53;;;;;;;47.40;20.60;;;;;;;-3.19;61.37;98573.38;5088234;28;20032;-62
2022/01/28 12:31:25;;;;;;;46.63;20.67;;;;;;;-3.32;62.12;98553.00;5085507;28;20139;-65
2022/01/28 12:34:00;;;;;;;50.45;20.42;;;;;;;-3.17;61.33;98566.28;5087320;28;20342;-64
2022/01/28 12:36:30;;;;;;;49.33;19.42;;;;;;;-3.24;61.57;98586.69;5088644;28;20028;-64
2022/01/28 12:41:49;;;;;;;50.83;20.92;;;;;;;-3.46;61.54;98553.59;5099336;28;20036;-65
2022/01/28 12:44:16;;;;;;;49.40;19.90;;;;;;;-3.33;62.20;98576.59;5099096;28;20027;-65
2022/01/28 12:46:49;;;;;;;45.58;19.13;;;;;;;-3.25;61.48;98566.66;5096750;28;20116;-65
2022/01/28 12:49:14;;;;;;;47.58;20.55;;;;;;;-3.30;61.13;98550.28;5099592;28;20028;-63
2022/01/28 12:51:40;;;;;;;50.90;21.13;;;;;;;-3.25;62.06;98573.66;5097484;28;20705;-64
2022/01/28 12:54:07;;;;;;;47.67;19.42;;;;;;;-3.44;61.67;98526.50;5098329;28;20464;-63
2022/01/28 12:56:35;;;;;;;47.05;18.67;;;;;;;-3.38;61.38;98531.47;5099234;28;20032;-64
2022/01/28 12:59:01;;;;;;;52.47;21.20;;;;;;;-3.25;61.29;98556.19;5067299;28;20453;-62
2022/01/28 13:01:27;;;;;;;50.65;21.10;;;;;;;-3.37;62.30;98554.97;5088778;28;20027;-64
2022/01/28 13:04:04;;;;;;;48.70;19.98;;;;;;;-3.27;61.92;98557.16;5087020;28;20043;-64
2022/01/28 13:09:09;;;;;;;48.80;19.65;;;;;;;-3.49;61.79;98524.97;5086039;28;20020;-64
2022/01/28 13:11:52;;;;;;;49.58;20.77;;;;;;;-3.26;61.84;98561.47;5087031;28;20471;-62